AFR37VC EGNT-LFPG
Flight info
| Callsign | AFR37VC |
|---|---|
| Flight time | 1h 21m |
| Altitude | 35000 |
| Route | GIRLI P18 GASKO P16 RIBEL UP16 CROFT UL612 WOD UM605 BIBAX |
| Aircraft | E170/M-SDE3GILORVW/S |
Departure
| Time | 2026-05-09 06:22 |
|---|---|
| Airport | Newcastle International Airport (EGNT) |
Arrival
| Time | 2026-05-09 07:44 |
|---|---|
| Airport | Charles de Gaulle International Airport (LFPG) |
| Time | Latitude | Longitude | Altitude | Speed | Heading |
|---|---|---|---|---|---|
| 2026-05-09 06:10 | 55.03881 | -1.70651 | 263 ft | 0 kts | 4° |
| 2026-05-09 06:15 | 55.03881 | -1.70650 | 263 ft | 0 kts | 4° |
| 2026-05-09 06:15 | 55.03879 | -1.70651 | 263 ft | 2 kts | 4° |
| 2026-05-09 06:16 | 55.03864 | -1.70653 | 263 ft | 2 kts | 4° |
| 2026-05-09 06:16 | 55.03849 | -1.70654 | 263 ft | 2 kts | 4° |
| 2026-05-09 06:16 | 55.03834 | -1.70656 | 263 ft | 2 kts | 4° |
| 2026-05-09 06:16 | 55.03820 | -1.70662 | 263 ft | 2 kts | 35° |
| 2026-05-09 06:17 | 55.03811 | -1.70682 | 263 ft | 2 kts | 75° |
| 2026-05-09 06:17 | 55.03811 | -1.70699 | 263 ft | 0 kts | 94° |
| 2026-05-09 06:18 | 55.03810 | -1.70698 | 263 ft | 0 kts | 94° |
| 2026-05-09 06:19 | 55.03807 | -1.70629 | 263 ft | 9 kts | 94° |
| 2026-05-09 06:19 | 55.03802 | -1.70502 | 263 ft | 11 kts | 93° |
| 2026-05-09 06:19 | 55.03791 | -1.70402 | 262 ft | 4 kts | 176° |
| 2026-05-09 06:19 | 55.03740 | -1.70423 | 262 ft | 11 kts | 183° |
| 2026-05-09 06:20 | 55.03647 | -1.70435 | 263 ft | 14 kts | 185° |
| 2026-05-09 06:20 | 55.03596 | -1.70560 | 264 ft | 13 kts | 263° |
| 2026-05-09 06:20 | 55.03529 | -1.70637 | 265 ft | 13 kts | 183° |
| 2026-05-09 06:20 | 55.03435 | -1.70640 | 266 ft | 13 kts | 180° |
| 2026-05-09 06:21 | 55.03373 | -1.70565 | 266 ft | 13 kts | 70° |
| 2026-05-09 06:21 | 55.03383 | -1.70526 | 265 ft | 3 kts | 65° |
| 2026-05-09 06:21 | 55.03486 | -1.70131 | 261 ft | 71 kts | 65° |
| 2026-05-09 06:21 | 55.03790 | -1.68995 | 248 ft | 131 kts | 65° |
| 2026-05-09 06:22 | 55.04227 | -1.67362 | 412 ft | 161 kts | 63° |
| 2026-05-09 06:22 | 55.04702 | -1.65678 | 828 ft | 151 kts | 64° |
| 2026-05-09 06:22 | 55.05150 | -1.63946 | 1283 ft | 165 kts | 65° |
| 2026-05-09 06:22 | 55.05620 | -1.62140 | 2066 ft | 172 kts | 64° |
| 2026-05-09 06:23 | 55.06145 | -1.60135 | 2642 ft | 194 kts | 66° |
| 2026-05-09 06:23 | 55.06730 | -1.57878 | 3212 ft | 215 kts | 71° |
| 2026-05-09 06:23 | 55.06752 | -1.55332 | 3995 ft | 221 kts | 114° |
| 2026-05-09 06:23 | 55.05734 | -1.53326 | 4695 ft | 235 kts | 152° |
| 2026-05-09 06:24 | 55.04077 | -1.52804 | 5196 ft | 256 kts | 184° |
| 2026-05-09 06:24 | 55.02289 | -1.53015 | 5959 ft | 266 kts | 183° |
| 2026-05-09 06:24 | 55.00440 | -1.53131 | 6835 ft | 270 kts | 181° |
| 2026-05-09 06:24 | 54.98574 | -1.53194 | 7752 ft | 266 kts | 182° |
| 2026-05-09 06:25 | 54.96771 | -1.53986 | 7970 ft | 269 kts | 208° |
| 2026-05-09 06:25 | 54.95168 | -1.55638 | 7998 ft | 271 kts | 211° |
| 2026-05-09 06:25 | 54.93547 | -1.57325 | 7998 ft | 271 kts | 211° |
| 2026-05-09 06:25 | 54.91895 | -1.59036 | 8324 ft | 287 kts | 211° |
| 2026-05-09 06:26 | 54.90188 | -1.60796 | 9193 ft | 286 kts | 211° |
| 2026-05-09 06:26 | 54.88503 | -1.62532 | 10174 ft | 282 kts | 211° |
| 2026-05-09 06:26 | 54.86831 | -1.64251 | 11065 ft | 281 kts | 211° |
| 2026-05-09 06:26 | 54.85135 | -1.65994 | 11742 ft | 289 kts | 211° |
| 2026-05-09 06:27 | 54.83373 | -1.67801 | 12329 ft | 300 kts | 211° |
| 2026-05-09 06:27 | 54.81616 | -1.69602 | 12983 ft | 307 kts | 211° |
| 2026-05-09 06:27 | 54.79758 | -1.71504 | 13775 ft | 311 kts | 211° |
| 2026-05-09 06:27 | 54.77913 | -1.73391 | 14638 ft | 313 kts | 211° |
| 2026-05-09 06:28 | 54.76047 | -1.75297 | 15424 ft | 315 kts | 212° |
| 2026-05-09 06:28 | 54.74137 | -1.77246 | 16156 ft | 319 kts | 212° |
| 2026-05-09 06:28 | 54.72238 | -1.79182 | 16880 ft | 322 kts | 212° |
| 2026-05-09 06:28 | 54.70141 | -1.80593 | 17547 ft | 329 kts | 194° |
| 2026-05-09 06:29 | 54.67900 | -1.81332 | 18223 ft | 333 kts | 193° |
| 2026-05-09 06:29 | 54.65615 | -1.82063 | 18845 ft | 337 kts | 193° |
| 2026-05-09 06:29 | 54.63309 | -1.82795 | 19478 ft | 339 kts | 193° |
| 2026-05-09 06:29 | 54.61009 | -1.83524 | 20129 ft | 341 kts | 193° |
| 2026-05-09 06:30 | 54.58662 | -1.84266 | 20737 ft | 343 kts | 194° |
| 2026-05-09 06:30 | 54.56319 | -1.85005 | 21310 ft | 345 kts | 194° |
| 2026-05-09 06:30 | 54.53978 | -1.85743 | 21883 ft | 347 kts | 194° |
| 2026-05-09 06:30 | 54.51586 | -1.86496 | 22416 ft | 349 kts | 194° |
| 2026-05-09 06:31 | 54.49205 | -1.87245 | 22925 ft | 351 kts | 194° |
| 2026-05-09 06:31 | 54.46807 | -1.87999 | 23443 ft | 352 kts | 194° |
| 2026-05-09 06:31 | 54.44400 | -1.88754 | 23916 ft | 355 kts | 194° |
| 2026-05-09 06:31 | 54.41975 | -1.89514 | 24392 ft | 357 kts | 194° |
| 2026-05-09 06:32 | 54.39512 | -1.90284 | 24867 ft | 359 kts | 194° |
| 2026-05-09 06:32 | 54.37060 | -1.91051 | 25352 ft | 361 kts | 194° |
| 2026-05-09 06:32 | 54.34613 | -1.91815 | 25787 ft | 363 kts | 194° |
| 2026-05-09 06:33 | 54.29619 | -1.93371 | 26651 ft | 367 kts | 194° |
| 2026-05-09 06:33 | 54.27106 | -1.94152 | 27057 ft | 369 kts | 194° |
| 2026-05-09 06:33 | 54.24574 | -1.95078 | 27442 ft | 369 kts | 200° |
| 2026-05-09 06:34 | 54.20115 | -1.99180 | 28185 ft | 368 kts | 221° |
| 2026-05-09 06:34 | 54.18278 | -2.02194 | 28552 ft | 369 kts | 225° |
| 2026-05-09 06:34 | 54.16432 | -2.05249 | 28890 ft | 372 kts | 224° |
| 2026-05-09 06:34 | 54.14562 | -2.08279 | 29235 ft | 374 kts | 223° |
| 2026-05-09 06:35 | 54.12666 | -2.11327 | 29602 ft | 375 kts | 223° |
| 2026-05-09 06:35 | 54.10750 | -2.14397 | 29893 ft | 378 kts | 223° |
| 2026-05-09 06:35 | 54.08825 | -2.17472 | 30176 ft | 381 kts | 223° |
| 2026-05-09 06:35 | 54.06913 | -2.20522 | 30517 ft | 382 kts | 223° |
| 2026-05-09 06:36 | 54.04979 | -2.23603 | 30844 ft | 384 kts | 223° |
| 2026-05-09 06:36 | 54.03007 | -2.26695 | 31148 ft | 386 kts | 219° |
| 2026-05-09 06:36 | 54.00794 | -2.29278 | 31407 ft | 389 kts | 210° |
| 2026-05-09 06:36 | 53.98330 | -2.31133 | 31690 ft | 392 kts | 202° |
| 2026-05-09 06:37 | 53.95776 | -2.32747 | 32002 ft | 393 kts | 202° |
| 2026-05-09 06:37 | 53.93235 | -2.34373 | 32343 ft | 393 kts | 202° |
| 2026-05-09 06:37 | 53.90688 | -2.36009 | 32734 ft | 392 kts | 202° |
| 2026-05-09 06:37 | 53.88120 | -2.37658 | 33159 ft | 391 kts | 202° |
| 2026-05-09 06:38 | 53.85569 | -2.39294 | 33582 ft | 389 kts | 202° |
| 2026-05-09 06:38 | 53.83102 | -2.40876 | 33977 ft | 388 kts | 202° |
| 2026-05-09 06:38 | 53.80594 | -2.42481 | 34351 ft | 387 kts | 202° |
| 2026-05-09 06:38 | 53.78052 | -2.44107 | 34714 ft | 387 kts | 202° |
| 2026-05-09 06:39 | 53.75510 | -2.45729 | 35029 ft | 385 kts | 202° |
| 2026-05-09 06:39 | 53.73173 | -2.47220 | 35113 ft | 385 kts | 202° |
| 2026-05-09 06:39 | 53.68903 | -2.49939 | 35140 ft | 398 kts | 202° |
| 2026-05-09 06:40 | 53.66257 | -2.51395 | 35141 ft | 406 kts | 194° |
| 2026-05-09 06:40 | 53.59934 | -2.51781 | 35147 ft | 423 kts | 174° |
| 2026-05-09 06:40 | 53.57101 | -2.50651 | 35146 ft | 427 kts | 165° |
| 2026-05-09 06:41 | 53.51717 | -2.46323 | 35144 ft | 430 kts | 159° |
| 2026-05-09 06:41 | 53.46244 | -2.42259 | 35139 ft | 428 kts | 161° |
| 2026-05-09 06:42 | 53.40769 | -2.38383 | 35141 ft | 429 kts | 161° |
| 2026-05-09 06:42 | 53.35272 | -2.34520 | 35137 ft | 430 kts | 161° |
| 2026-05-09 06:43 | 53.29750 | -2.30652 | 35137 ft | 429 kts | 161° |
| 2026-05-09 06:43 | 53.24260 | -2.26817 | 35139 ft | 429 kts | 161° |
| 2026-05-09 06:44 | 53.18773 | -2.22995 | 35133 ft | 428 kts | 161° |
| 2026-05-09 06:44 | 53.13290 | -2.19187 | 35127 ft | 429 kts | 161° |
| 2026-05-09 06:45 | 53.07818 | -2.15396 | 35125 ft | 427 kts | 161° |
| 2026-05-09 06:45 | 53.02273 | -2.11566 | 35122 ft | 428 kts | 160° |
| 2026-05-09 06:46 | 52.96788 | -2.07788 | 35117 ft | 430 kts | 161° |
| 2026-05-09 06:46 | 52.91283 | -2.04006 | 35121 ft | 429 kts | 160° |
| 2026-05-09 06:47 | 52.85785 | -2.00239 | 35129 ft | 428 kts | 160° |
| 2026-05-09 06:47 | 52.80342 | -1.96522 | 35128 ft | 427 kts | 160° |
| 2026-05-09 06:48 | 52.74881 | -1.92800 | 35131 ft | 427 kts | 160° |
| 2026-05-09 06:48 | 52.69514 | -1.89154 | 35137 ft | 427 kts | 160° |
| 2026-05-09 06:49 | 52.63987 | -1.85408 | 35138 ft | 425 kts | 160° |
| 2026-05-09 06:49 | 52.58550 | -1.81734 | 35139 ft | 425 kts | 160° |
| 2026-05-09 06:50 | 52.53066 | -1.78038 | 35137 ft | 424 kts | 160° |
| 2026-05-09 06:50 | 52.47570 | -1.74344 | 35139 ft | 424 kts | 160° |
| 2026-05-09 06:51 | 52.42119 | -1.70689 | 35137 ft | 424 kts | 159° |
| 2026-05-09 06:51 | 52.36652 | -1.67034 | 35137 ft | 424 kts | 159° |
| 2026-05-09 06:52 | 52.31337 | -1.62843 | 35135 ft | 426 kts | 155° |
| 2026-05-09 06:52 | 52.26033 | -1.58466 | 35134 ft | 426 kts | 155° |
| 2026-05-09 06:53 | 52.20758 | -1.54147 | 35127 ft | 425 kts | 155° |
| 2026-05-09 06:53 | 52.15447 | -1.49813 | 35126 ft | 425 kts | 155° |
| 2026-05-09 06:54 | 52.10177 | -1.45522 | 35124 ft | 424 kts | 155° |
| 2026-05-09 06:54 | 52.04893 | -1.41232 | 35122 ft | 424 kts | 154° |
| 2026-05-09 06:55 | 51.99603 | -1.36947 | 35122 ft | 424 kts | 154° |
| 2026-05-09 06:55 | 51.94293 | -1.32658 | 35118 ft | 424 kts | 155° |
| 2026-05-09 06:56 | 51.89025 | -1.28414 | 35113 ft | 422 kts | 155° |
| 2026-05-09 06:56 | 51.84040 | -1.24409 | 35124 ft | 424 kts | 155° |
| 2026-05-09 06:57 | 51.78776 | -1.20189 | 35122 ft | 424 kts | 155° |
| 2026-05-09 06:57 | 51.73495 | -1.15967 | 35113 ft | 422 kts | 155° |
| 2026-05-09 06:58 | 51.68255 | -1.11789 | 35114 ft | 422 kts | 155° |
| 2026-05-09 06:58 | 51.62995 | -1.07606 | 35107 ft | 422 kts | 155° |
| 2026-05-09 06:59 | 51.58051 | -1.02448 | 35107 ft | 424 kts | 146° |
| 2026-05-09 06:59 | 51.53287 | -0.97001 | 35103 ft | 424 kts | 146° |
| 2026-05-09 07:00 | 51.48490 | -0.91537 | 35105 ft | 424 kts | 146° |
| 2026-05-09 07:00 | 51.43813 | -0.85749 | 35108 ft | 424 kts | 139° |
| 2026-05-09 07:01 | 51.39480 | -0.79343 | 35104 ft | 424 kts | 139° |
| 2026-05-09 07:01 | 51.35148 | -0.72974 | 35105 ft | 424 kts | 139° |
| 2026-05-09 07:02 | 51.30781 | -0.66574 | 35101 ft | 424 kts | 139° |
| 2026-05-09 07:02 | 51.26428 | -0.60211 | 35094 ft | 423 kts | 139° |
| 2026-05-09 07:03 | 51.22804 | -0.54926 | 35095 ft | 424 kts | 139° |
| 2026-05-09 07:03 | 51.18458 | -0.48605 | 35088 ft | 424 kts | 139° |
| 2026-05-09 07:04 | 51.13363 | -0.41216 | 35091 ft | 424 kts | 139° |
| 2026-05-09 07:04 | 51.09066 | -0.35002 | 35086 ft | 423 kts | 139° |
| 2026-05-09 07:05 | 51.04617 | -0.28584 | 35092 ft | 423 kts | 140° |
| 2026-05-09 07:05 | 51.00999 | -0.23379 | 35095 ft | 423 kts | 140° |
| 2026-05-09 07:06 | 50.99540 | -0.21282 | 35090 ft | 423 kts | 139° |
| 2026-05-09 07:06 | 50.98092 | -0.19204 | 35089 ft | 422 kts | 140° |
| 2026-05-09 07:07 | 50.95905 | -0.16068 | 35078 ft | 422 kts | 140° |
| 2026-05-09 07:07 | 50.82885 | 0.02513 | 35088 ft | 423 kts | 140° |
| 2026-05-09 07:08 | 50.78535 | 0.08689 | 35082 ft | 422 kts | 139° |
| 2026-05-09 07:08 | 50.74110 | 0.14724 | 35081 ft | 421 kts | 142° |
| 2026-05-09 07:09 | 50.69562 | 0.20532 | 35079 ft | 417 kts | 142° |
| 2026-05-09 07:09 | 50.65193 | 0.26117 | 35077 ft | 417 kts | 142° |
| 2026-05-09 07:10 | 50.62916 | 0.29024 | 34914 ft | 419 kts | 142° |
| 2026-05-09 07:10 | 50.60677 | 0.31878 | 34448 ft | 417 kts | 142° |
| 2026-05-09 07:10 | 50.58431 | 0.34738 | 33981 ft | 414 kts | 142° |
| 2026-05-09 07:10 | 50.56192 | 0.37584 | 33519 ft | 415 kts | 142° |
| 2026-05-09 07:11 | 50.53950 | 0.40432 | 33060 ft | 416 kts | 142° |
| 2026-05-09 07:11 | 50.51713 | 0.43269 | 32600 ft | 418 kts | 142° |
| 2026-05-09 07:11 | 50.49452 | 0.46133 | 32135 ft | 417 kts | 142° |
| 2026-05-09 07:11 | 50.47200 | 0.48984 | 31674 ft | 415 kts | 142° |
| 2026-05-09 07:12 | 50.44964 | 0.51808 | 31219 ft | 411 kts | 142° |
| 2026-05-09 07:12 | 50.42746 | 0.54607 | 30765 ft | 408 kts | 142° |
| 2026-05-09 07:12 | 50.40549 | 0.57376 | 30310 ft | 405 kts | 142° |
| 2026-05-09 07:12 | 50.38338 | 0.60160 | 29857 ft | 404 kts | 142° |
| 2026-05-09 07:13 | 50.36176 | 0.62878 | 29415 ft | 402 kts | 142° |
| 2026-05-09 07:13 | 50.33990 | 0.65624 | 29069 ft | 399 kts | 142° |
| 2026-05-09 07:13 | 50.29653 | 0.71061 | 28669 ft | 401 kts | 142° |
| 2026-05-09 07:14 | 50.27481 | 0.73779 | 28240 ft | 398 kts | 142° |
| 2026-05-09 07:14 | 50.25324 | 0.76476 | 27801 ft | 396 kts | 142° |
| 2026-05-09 07:14 | 50.23188 | 0.79143 | 27366 ft | 393 kts | 142° |
| 2026-05-09 07:14 | 50.21061 | 0.81795 | 26933 ft | 392 kts | 142° |
| 2026-05-09 07:15 | 50.18955 | 0.84419 | 26499 ft | 390 kts | 142° |
| 2026-05-09 07:15 | 50.16833 | 0.87058 | 26068 ft | 388 kts | 142° |
| 2026-05-09 07:15 | 50.14738 | 0.89662 | 25645 ft | 387 kts | 142° |
| 2026-05-09 07:15 | 50.12630 | 0.92278 | 25208 ft | 385 kts | 142° |
| 2026-05-09 07:16 | 50.10568 | 0.94835 | 24793 ft | 384 kts | 142° |
| 2026-05-09 07:16 | 50.08474 | 0.97428 | 24366 ft | 382 kts | 142° |
| 2026-05-09 07:16 | 50.06406 | 0.99979 | 23946 ft | 381 kts | 143° |
| 2026-05-09 07:16 | 50.04129 | 1.02008 | 23612 ft | 377 kts | 154° |
| 2026-05-09 07:17 | 50.01751 | 1.03813 | 23194 ft | 377 kts | 154° |
| 2026-05-09 07:17 | 49.99420 | 1.05574 | 22788 ft | 377 kts | 154° |
| 2026-05-09 07:17 | 49.97078 | 1.07338 | 22372 ft | 375 kts | 154° |
| 2026-05-09 07:17 | 49.94737 | 1.09099 | 21955 ft | 374 kts | 154° |
| 2026-05-09 07:18 | 49.92399 | 1.10857 | 21541 ft | 372 kts | 155° |
| 2026-05-09 07:18 | 49.90065 | 1.12608 | 21126 ft | 372 kts | 155° |
| 2026-05-09 07:18 | 49.87751 | 1.14343 | 20718 ft | 370 kts | 155° |
| 2026-05-09 07:18 | 49.85518 | 1.16015 | 20324 ft | 369 kts | 155° |
| 2026-05-09 07:19 | 49.83196 | 1.17753 | 19917 ft | 367 kts | 155° |
| 2026-05-09 07:19 | 49.80920 | 1.19453 | 19513 ft | 366 kts | 155° |
| 2026-05-09 07:19 | 49.78640 | 1.21155 | 19111 ft | 364 kts | 155° |
| 2026-05-09 07:19 | 49.76353 | 1.22861 | 18704 ft | 363 kts | 155° |
| 2026-05-09 07:20 | 49.74094 | 1.24544 | 18303 ft | 362 kts | 155° |
| 2026-05-09 07:20 | 49.71830 | 1.26228 | 17905 ft | 360 kts | 155° |
| 2026-05-09 07:20 | 49.69578 | 1.27903 | 17506 ft | 358 kts | 155° |
| 2026-05-09 07:20 | 49.67347 | 1.29559 | 17112 ft | 355 kts | 155° |
| 2026-05-09 07:21 | 49.65134 | 1.31202 | 16720 ft | 353 kts | 155° |
| 2026-05-09 07:21 | 49.62950 | 1.32820 | 16336 ft | 350 kts | 155° |
| 2026-05-09 07:21 | 49.60756 | 1.34445 | 15948 ft | 348 kts | 155° |
| 2026-05-09 07:21 | 49.58599 | 1.36040 | 15566 ft | 345 kts | 155° |
| 2026-05-09 07:22 | 49.56440 | 1.37635 | 15186 ft | 343 kts | 155° |
| 2026-05-09 07:22 | 49.54295 | 1.39220 | 14807 ft | 341 kts | 155° |
| 2026-05-09 07:22 | 49.52092 | 1.40844 | 14418 ft | 339 kts | 155° |
| 2026-05-09 07:22 | 49.49994 | 1.42390 | 14046 ft | 336 kts | 155° |
| 2026-05-09 07:23 | 49.47886 | 1.43941 | 13675 ft | 334 kts | 155° |
| 2026-05-09 07:23 | 49.45792 | 1.45481 | 13307 ft | 333 kts | 155° |
| 2026-05-09 07:23 | 49.43633 | 1.47067 | 12926 ft | 332 kts | 155° |
| 2026-05-09 07:23 | 49.41552 | 1.48595 | 12558 ft | 331 kts | 155° |
| 2026-05-09 07:24 | 49.39480 | 1.50114 | 12189 ft | 329 kts | 155° |
| 2026-05-09 07:24 | 49.37414 | 1.51627 | 11824 ft | 327 kts | 155° |
| 2026-05-09 07:24 | 49.35401 | 1.53101 | 11463 ft | 320 kts | 155° |
| 2026-05-09 07:24 | 49.33417 | 1.54552 | 11114 ft | 313 kts | 155° |
| 2026-05-09 07:25 | 49.31521 | 1.56099 | 10755 ft | 306 kts | 141° |
| 2026-05-09 07:25 | 49.30276 | 1.58643 | 10467 ft | 301 kts | 112° |
| 2026-05-09 07:25 | 49.29879 | 1.61742 | 10102 ft | 293 kts | 96° |
| 2026-05-09 07:25 | 49.29694 | 1.64840 | 9754 ft | 289 kts | 95° |
| 2026-05-09 07:26 | 49.29537 | 1.67920 | 9428 ft | 288 kts | 96° |
| 2026-05-09 07:26 | 49.29392 | 1.70971 | 9110 ft | 286 kts | 96° |
| 2026-05-09 07:26 | 49.29098 | 1.73871 | 8792 ft | 283 kts | 115° |
| 2026-05-09 07:26 | 49.27913 | 1.76188 | 8499 ft | 278 kts | 146° |
| 2026-05-09 07:27 | 49.26207 | 1.77590 | 8154 ft | 276 kts | 155° |
| 2026-05-09 07:27 | 49.24482 | 1.78828 | 7822 ft | 273 kts | 156° |
| 2026-05-09 07:27 | 49.22765 | 1.80021 | 7515 ft | 272 kts | 156° |
| 2026-05-09 07:27 | 49.21041 | 1.81200 | 7211 ft | 270 kts | 156° |
| 2026-05-09 07:28 | 49.19320 | 1.82368 | 6911 ft | 269 kts | 157° |
| 2026-05-09 07:28 | 49.17603 | 1.83527 | 6611 ft | 268 kts | 156° |
| 2026-05-09 07:28 | 49.15910 | 1.84670 | 6319 ft | 267 kts | 156° |
| 2026-05-09 07:28 | 49.14217 | 1.85812 | 6051 ft | 265 kts | 157° |
| 2026-05-09 07:29 | 49.12427 | 1.86343 | 6055 ft | 264 kts | 180° |
| 2026-05-09 07:29 | 49.10572 | 1.86251 | 6044 ft | 264 kts | 182° |
| 2026-05-09 07:29 | 49.08739 | 1.86137 | 6030 ft | 265 kts | 182° |
| 2026-05-09 07:29 | 49.06874 | 1.86029 | 6028 ft | 266 kts | 182° |
| 2026-05-09 07:30 | 49.05033 | 1.85922 | 6028 ft | 266 kts | 182° |
| 2026-05-09 07:30 | 49.03162 | 1.85811 | 6027 ft | 266 kts | 182° |
| 2026-05-09 07:30 | 49.01311 | 1.85703 | 6028 ft | 266 kts | 182° |
| 2026-05-09 07:30 | 48.99462 | 1.85598 | 6027 ft | 266 kts | 182° |
| 2026-05-09 07:31 | 48.97605 | 1.85490 | 6028 ft | 267 kts | 183° |
| 2026-05-09 07:31 | 48.95847 | 1.84635 | 6035 ft | 268 kts | 216° |
| 2026-05-09 07:31 | 48.94733 | 1.82419 | 6051 ft | 272 kts | 250° |
| 2026-05-09 07:31 | 48.94640 | 1.79540 | 6050 ft | 276 kts | 285° |
| 2026-05-09 07:32 | 48.95653 | 1.77046 | 6051 ft | 279 kts | 320° |
| 2026-05-09 07:32 | 48.97389 | 1.75842 | 6053 ft | 280 kts | 354° |
| 2026-05-09 07:32 | 48.99283 | 1.76296 | 6046 ft | 271 kts | 29° |
| 2026-05-09 07:32 | 49.00571 | 1.78171 | 6037 ft | 254 kts | 66° |
| 2026-05-09 07:33 | 49.00853 | 1.80740 | 6057 ft | 248 kts | 98° |
| 2026-05-09 07:33 | 49.00252 | 1.85969 | 6025 ft | 248 kts | 102° |
| 2026-05-09 07:33 | 48.99948 | 1.88474 | 5869 ft | 235 kts | 102° |
| 2026-05-09 07:34 | 48.99662 | 1.90836 | 5861 ft | 216 kts | 102° |
| 2026-05-09 07:34 | 48.99409 | 1.92975 | 5906 ft | 192 kts | 102° |
| 2026-05-09 07:34 | 48.99181 | 1.94901 | 5736 ft | 184 kts | 102° |
| 2026-05-09 07:34 | 48.98942 | 1.96904 | 5501 ft | 194 kts | 102° |
| 2026-05-09 07:35 | 48.98696 | 1.98909 | 5234 ft | 193 kts | 102° |
| 2026-05-09 07:35 | 48.98438 | 2.00886 | 5040 ft | 186 kts | 102° |
| 2026-05-09 07:35 | 48.98186 | 2.02799 | 5033 ft | 186 kts | 102° |
| 2026-05-09 07:35 | 48.97929 | 2.04750 | 5036 ft | 187 kts | 102° |
| 2026-05-09 07:36 | 48.97673 | 2.06691 | 5039 ft | 187 kts | 102° |
| 2026-05-09 07:36 | 48.97417 | 2.08632 | 5035 ft | 187 kts | 102° |
| 2026-05-09 07:36 | 48.97155 | 2.10577 | 5033 ft | 187 kts | 104° |
| 2026-05-09 07:36 | 48.96831 | 2.12492 | 5028 ft | 189 kts | 93° |
| 2026-05-09 07:37 | 48.96930 | 2.14485 | 5063 ft | 189 kts | 85° |
| 2026-05-09 07:37 | 48.97060 | 2.16478 | 5078 ft | 190 kts | 85° |
| 2026-05-09 07:37 | 48.97183 | 2.18462 | 5094 ft | 190 kts | 86° |
| 2026-05-09 07:37 | 48.97304 | 2.20490 | 4978 ft | 192 kts | 86° |
| 2026-05-09 07:38 | 48.97422 | 2.22509 | 4754 ft | 190 kts | 86° |
| 2026-05-09 07:38 | 48.97536 | 2.24490 | 4517 ft | 187 kts | 86° |
| 2026-05-09 07:38 | 48.97646 | 2.26438 | 4274 ft | 185 kts | 86° |
| 2026-05-09 07:38 | 48.97754 | 2.28368 | 4028 ft | 183 kts | 86° |
| 2026-05-09 07:39 | 48.97861 | 2.30301 | 3777 ft | 180 kts | 85° |
| 2026-05-09 07:39 | 48.97963 | 2.32158 | 3525 ft | 174 kts | 85° |
| 2026-05-09 07:39 | 48.98059 | 2.33944 | 3285 ft | 168 kts | 85° |
| 2026-05-09 07:39 | 48.98159 | 2.35701 | 3067 ft | 157 kts | 85° |
| 2026-05-09 07:40 | 48.98247 | 2.37238 | 2883 ft | 143 kts | 85° |
| 2026-05-09 07:40 | 48.98330 | 2.38739 | 2675 ft | 142 kts | 85° |
| 2026-05-09 07:40 | 48.98412 | 2.40227 | 2479 ft | 142 kts | 85° |
| 2026-05-09 07:40 | 48.98494 | 2.41738 | 2280 ft | 142 kts | 85° |
| 2026-05-09 07:41 | 48.98575 | 2.43229 | 2084 ft | 142 kts | 85° |
| 2026-05-09 07:41 | 48.98657 | 2.44733 | 1887 ft | 141 kts | 85° |
| 2026-05-09 07:41 | 48.98736 | 2.46208 | 1694 ft | 141 kts | 84° |
| 2026-05-09 07:41 | 48.98815 | 2.47701 | 1500 ft | 141 kts | 85° |
| 2026-05-09 07:42 | 48.98894 | 2.49181 | 1295 ft | 133 kts | 84° |
| 2026-05-09 07:42 | 48.98969 | 2.50517 | 1115 ft | 124 kts | 85° |
| 2026-05-09 07:42 | 48.99039 | 2.51819 | 961 ft | 125 kts | 84° |
| 2026-05-09 07:42 | 48.99111 | 2.53159 | 800 ft | 126 kts | 85° |
| 2026-05-09 07:43 | 48.99183 | 2.54502 | 631 ft | 128 kts | 83° |
| 2026-05-09 07:43 | 48.99255 | 2.55851 | 466 ft | 128 kts | 84° |
| 2026-05-09 07:43 | 48.99323 | 2.57161 | 331 ft | 120 kts | 84° |
| 2026-05-09 07:43 | 48.99383 | 2.58299 | 320 ft | 93 kts | 84° |
| 2026-05-09 07:44 | 48.99429 | 2.59131 | 319 ft | 58 kts | 85° |
| 2026-05-09 07:44 | 48.99455 | 2.59631 | 319 ft | 40 kts | 84° |
| 2026-05-09 07:44 | 48.99522 | 2.59934 | 318 ft | 23 kts | 46° |
| 2026-05-09 07:44 | 48.99612 | 2.59981 | 318 ft | 14 kts | 344° |
| 2026-05-09 07:45 | 48.99640 | 2.59850 | 318 ft | 14 kts | 265° |
| 2026-05-09 07:45 | 48.99652 | 2.59700 | 318 ft | 14 kts | 326° |
| 2026-05-09 07:45 | 48.99752 | 2.59681 | 320 ft | 14 kts | 356° |
| 2026-05-09 07:45 | 48.99851 | 2.59670 | 322 ft | 14 kts | 355° |
| 2026-05-09 07:46 | 48.99952 | 2.59659 | 322 ft | 15 kts | 356° |
| 2026-05-09 07:46 | 49.00059 | 2.59631 | 323 ft | 16 kts | 320° |
| 2026-05-09 07:46 | 49.00073 | 2.59472 | 323 ft | 17 kts | 265° |
| 2026-05-09 07:46 | 49.00062 | 2.59272 | 325 ft | 20 kts | 265° |
| 2026-05-09 07:47 | 49.00050 | 2.59046 | 325 ft | 21 kts | 264° |
| 2026-05-09 07:47 | 49.00039 | 2.58826 | 325 ft | 20 kts | 265° |
| 2026-05-09 07:47 | 49.00027 | 2.58603 | 326 ft | 21 kts | 264° |
| 2026-05-09 07:47 | 49.00015 | 2.58385 | 325 ft | 15 kts | 270° |
| 2026-05-09 07:48 | 49.00081 | 2.58320 | 327 ft | 12 kts | 356° |
| 2026-05-09 07:48 | 49.00167 | 2.58311 | 328 ft | 12 kts | 356° |
| 2026-05-09 07:48 | 49.00255 | 2.58301 | 328 ft | 13 kts | 355° |
| 2026-05-09 07:48 | 49.00286 | 2.58325 | 328 ft | 4 kts | 83° |
| 2026-05-09 07:49 | 49.00289 | 2.58385 | 328 ft | 6 kts | 85° |